createdAt,value
2022-09-09T00:01:07.736Z,1.60
2022-09-09T00:02:19.101Z,1.70
2022-09-09T00:03:28.022Z,1.40
2022-09-09T00:04:31.871Z,1.50
2022-09-09T00:05:44.429Z,1.70
2022-09-09T00:06:51.560Z,1.73
2022-09-09T00:07:57.738Z,1.58
2022-09-09T00:09:06.734Z,1.67
2022-09-09T00:10:19.476Z,1.75
2022-09-09T00:11:31.434Z,1.70
2022-09-09T00:12:40.108Z,1.27
2022-09-09T00:13:47.530Z,1.58
2022-09-09T00:14:56.343Z,1.75
2022-09-09T00:16:03.113Z,1.52
2022-09-09T00:17:11.409Z,1.60
2022-09-09T00:18:24.610Z,1.40
2022-09-09T00:19:34.847Z,1.40
2022-09-09T00:20:42.442Z,1.50
2022-09-09T00:21:50.127Z,1.83
2022-09-09T00:22:57.455Z,1.60
2022-09-09T00:24:02.442Z,1.88
2022-09-09T00:25:12.336Z,1.80
2022-09-09T00:26:23.170Z,2.55
2022-09-09T00:27:33.519Z,1.73
2022-09-09T00:28:43.644Z,2.00
2022-09-09T00:29:54.830Z,2.10
2022-09-09T00:30:59.328Z,1.80
2022-09-09T00:32:10.306Z,1.90
2022-09-09T00:33:16.111Z,2.22
2022-09-09T00:34:22.858Z,1.90
2022-09-09T00:35:29.558Z,1.30
2022-09-09T00:36:34.320Z,1.90
2022-09-09T00:37:37.890Z,1.63
2022-09-09T00:38:45.117Z,1.50
2022-09-09T00:39:49.600Z,1.50
2022-09-09T00:40:56.894Z,1.75
2022-09-09T00:42:10.789Z,1.60
2022-09-09T00:43:26.607Z,1.90
2022-09-09T00:44:35.680Z,2.00
2022-09-09T00:46:00.437Z,1.60
2022-09-09T00:47:20.646Z,1.90
2022-09-09T00:48:26.305Z,1.60
2022-09-09T00:49:42.070Z,1.60
2022-09-09T00:50:53.766Z,1.90
2022-09-09T00:52:08.470Z,1.50
2022-09-09T00:53:21.538Z,2.30
2022-09-09T00:54:35.081Z,1.70
2022-09-09T00:55:45.576Z,1.88
2022-09-09T00:57:01.261Z,2.03
2022-09-09T00:58:03.361Z,1.55
2022-09-09T00:59:17.837Z,2.33
2022-09-09T01:00:23.086Z,1.80
2022-09-09T01:01:26.262Z,1.65
2022-09-09T01:02:30.799Z,1.77
2022-09-09T01:03:38.098Z,1.50
2022-09-09T01:04:43.421Z,1.77
2022-09-09T01:05:51.836Z,1.58
2022-09-09T01:07:02.896Z,2.00
2022-09-09T01:08:22.741Z,1.63
2022-09-09T01:09:33.328Z,1.60
2022-09-09T01:10:47.127Z,1.63
2022-09-09T01:12:02.349Z,1.70
2022-09-09T01:13:17.273Z,2.50
2022-09-09T01:14:33.550Z,2.03
2022-09-09T01:15:36.777Z,1.30
2022-09-09T01:16:39.785Z,1.70
2022-09-09T01:17:54.799Z,1.50
2022-09-09T01:18:58.939Z,1.80
2022-09-09T01:20:11.827Z,2.33
2022-09-09T01:21:29.994Z,1.65
2022-09-09T01:22:39.517Z,1.48
2022-09-09T01:24:10.554Z,1.67
2022-09-09T01:26:17.565Z,1.40
2022-09-09T01:27:22.292Z,1.55
2022-09-09T01:28:29.368Z,1.90
2022-09-09T01:29:38.717Z,1.70
2022-09-09T01:30:42.632Z,1.30
2022-09-09T01:31:55.989Z,1.70
2022-09-09T01:33:01.302Z,1.38
2022-09-09T01:34:04.708Z,1.65
2022-09-09T01:35:10.997Z,1.75
2022-09-09T01:36:21.111Z,1.65
2022-09-09T01:37:25.847Z,1.75
2022-09-09T01:38:29.997Z,1.50
2022-09-09T01:39:33.396Z,1.75
2022-09-09T01:40:40.697Z,1.55
2022-09-09T01:41:45.477Z,1.25
2022-09-09T01:42:49.542Z,1.30
2022-09-09T01:43:52.797Z,1.40
2022-09-09T01:44:56.158Z,1.48
2022-09-09T01:46:02.517Z,1.35
2022-09-09T01:47:06.994Z,1.20
2022-09-09T01:48:10.360Z,1.35
2022-09-09T01:49:19.737Z,1.50
2022-09-09T01:50:22.321Z,1.50
2022-09-09T01:51:26.124Z,1.45
2022-09-09T01:52:28.293Z,1.38
2022-09-09T01:53:32.044Z,1.38
2022-09-09T01:54:35.025Z,1.30
2022-09-09T01:55:48.266Z,1.67
2022-09-09T01:57:05.549Z,1.48
2022-09-09T01:58:23.721Z,1.30
2022-09-09T01:59:47.050Z,1.55
2022-09-09T02:00:57.711Z,1.60
2022-09-09T02:02:13.504Z,1.45
2022-09-09T02:03:26.415Z,1.55
2022-09-09T02:04:41.029Z,1.60
2022-09-09T02:05:56.494Z,1.65
2022-09-09T02:07:08.130Z,1.60
2022-09-09T02:08:14.310Z,1.23
2022-09-09T02:09:27.826Z,1.27
2022-09-09T02:10:39.784Z,1.30
2022-09-09T02:11:58.341Z,1.65
2022-09-09T02:13:13.358Z,1.40
2022-09-09T02:14:24.056Z,1.38
2022-09-09T02:15:32.340Z,1.50
2022-09-09T02:16:40.552Z,1.52
2022-09-09T02:17:43.474Z,1.48
2022-09-09T02:18:56.716Z,1.60
2022-09-09T02:20:11.499Z,1.60
2022-09-09T02:21:36.562Z,1.40
2022-09-09T02:22:42.499Z,1.50
2022-09-09T02:23:47.998Z,1.50
2022-09-09T02:24:53.085Z,1.40
2022-09-09T02:26:01.251Z,1.85
2022-09-09T02:27:07.414Z,1.10
2022-09-09T02:28:14.134Z,1.30
2022-09-09T02:29:20.030Z,1.30
2022-09-09T02:30:23.750Z,1.40
2022-09-09T02:31:30.203Z,1.38
2022-09-09T02:32:40.786Z,1.45
2022-09-09T02:33:48.520Z,1.30
2022-09-09T02:34:55.357Z,1.70
2022-09-09T02:36:04.317Z,1.40
2022-09-09T02:37:10.178Z,1.60
2022-09-09T02:38:16.056Z,1.10
2022-09-09T02:39:27.805Z,1.58
2022-09-09T02:40:29.817Z,1.13
2022-09-09T02:41:39.775Z,1.38
2022-09-09T02:42:42.779Z,1.20
2022-09-09T02:43:47.430Z,1.55
2022-09-09T02:44:51.885Z,1.60
2022-09-09T02:46:02.288Z,1.60
2022-09-09T02:47:18.522Z,1.50
2022-09-09T02:48:31.656Z,1.50
2022-09-09T02:49:44.507Z,1.30
2022-09-09T02:50:59.013Z,1.70
2022-09-09T02:52:07.017Z,1.40
2022-09-09T02:53:18.676Z,1.48
2022-09-09T02:54:29.352Z,1.42
2022-09-09T02:55:40.508Z,1.55
2022-09-09T02:56:50.957Z,1.20
2022-09-09T02:57:55.458Z,1.40
2022-09-09T02:58:58.909Z,1.45
2022-09-09T03:00:02.799Z,1.40
2022-09-09T03:01:06.262Z,1.95
2022-09-09T03:02:11.149Z,1.50
2022-09-09T03:03:14.166Z,1.52
2022-09-09T03:04:17.173Z,1.70
2022-09-09T03:05:19.347Z,1.95
2022-09-09T03:06:22.805Z,1.50
2022-09-09T03:07:31.452Z,1.40
2022-09-09T03:08:34.618Z,1.42
2022-09-09T03:09:37.300Z,1.42
2022-09-09T03:10:40.687Z,1.30
2022-09-09T03:11:42.891Z,1.55
2022-09-09T03:12:46.269Z,1.50
2022-09-09T03:13:49.831Z,1.70
2022-09-09T03:14:54.214Z,1.63
2022-09-09T03:15:56.271Z,1.65
2022-09-09T03:17:01.923Z,1.90
2022-09-09T03:18:05.723Z,1.60
2022-09-09T03:19:10.489Z,1.40
2022-09-09T03:20:13.393Z,1.60
2022-09-09T03:21:16.686Z,1.42
2022-09-09T03:22:19.730Z,1.52
2022-09-09T03:23:23.964Z,1.70
2022-09-09T03:24:26.918Z,1.75
2022-09-09T03:25:31.062Z,1.38
2022-09-09T03:26:33.613Z,1.55
2022-09-09T03:27:37.302Z,1.85
2022-09-09T03:28:40.031Z,1.60
2022-09-09T03:29:43.130Z,1.45
2022-09-09T03:30:50.817Z,1.70
2022-09-09T03:31:54.145Z,1.20
2022-09-09T03:32:57.627Z,1.42
2022-09-09T03:34:05.685Z,1.50
2022-09-09T03:35:09.813Z,1.75
2022-09-09T03:36:16.528Z,1.10
2022-09-09T03:37:19.223Z,1.45
2022-09-09T03:38:22.864Z,1.10
2022-09-09T03:39:25.003Z,1.30
2022-09-09T03:40:28.151Z,1.30
2022-09-09T03:41:30.866Z,1.65
2022-09-09T03:42:37.871Z,1.50
2022-09-09T03:43:40.543Z,1.35
2022-09-09T03:44:46.018Z,1.30
2022-09-09T03:45:48.517Z,1.30
2022-09-09T03:46:53.429Z,1.92
2022-09-09T03:47:55.550Z,1.20
2022-09-09T03:48:59.143Z,1.95
2022-09-09T03:50:01.206Z,1.50
2022-09-09T03:51:05.350Z,1.50
2022-09-09T03:52:09.853Z,1.70
2022-09-09T03:53:12.943Z,1.60
2022-09-09T03:54:15.067Z,1.70
2022-09-09T03:55:18.545Z,1.60
2022-09-09T03:56:22.737Z,1.73
2022-09-09T03:57:25.871Z,2.00
2022-09-09T03:58:29.187Z,1.45
2022-09-09T03:59:38.222Z,2.10
2022-09-09T04:00:43.283Z,1.95
2022-09-09T04:01:48.057Z,2.42
2022-09-09T04:02:51.724Z,2.58
2022-09-09T04:03:56.197Z,2.30
2022-09-09T04:04:58.214Z,2.15
2022-09-09T04:06:02.992Z,2.15
2022-09-09T04:07:07.911Z,2.10
2022-09-09T04:08:10.979Z,2.47
2022-09-09T04:09:14.085Z,1.70
2022-09-09T04:10:16.797Z,1.60
2022-09-09T04:11:20.293Z,1.90
2022-09-09T04:12:25.852Z,1.60
2022-09-09T04:13:29.068Z,1.90
2022-09-09T04:14:33.782Z,1.98
2022-09-09T04:15:36.589Z,1.67
2022-09-09T04:16:39.959Z,2.08
2022-09-09T04:17:42.259Z,1.90
2022-09-09T04:18:46.922Z,2.10
2022-09-09T04:19:51.002Z,1.60
2022-09-09T04:20:55.643Z,1.23
2022-09-09T04:22:00.153Z,1.45
2022-09-09T04:23:03.495Z,1.70
2022-09-09T04:24:05.976Z,1.60
2022-09-09T04:25:10.138Z,1.33
2022-09-09T04:26:14.739Z,1.30
2022-09-09T04:27:18.028Z,1.80
2022-09-09T04:28:22.485Z,1.60
2022-09-09T04:29:25.766Z,1.67
2022-09-09T04:30:28.598Z,1.60
2022-09-09T04:31:31.702Z,2.17
2022-09-09T04:32:33.865Z,2.10
2022-09-09T04:33:40.322Z,1.77
2022-09-09T04:34:45.897Z,1.70
2022-09-09T04:35:50.262Z,1.30
2022-09-09T04:36:54.135Z,1.60
2022-09-09T04:37:57.185Z,1.58
2022-09-09T04:38:59.695Z,1.33
2022-09-09T04:40:03.760Z,2.05
2022-09-09T04:41:07.334Z,1.30
2022-09-09T04:42:14.436Z,1.60
2022-09-09T04:43:19.810Z,1.50
2022-09-09T04:44:23.069Z,1.65
2022-09-09T04:45:25.181Z,1.60
2022-09-09T04:46:28.386Z,1.33
2022-09-09T04:47:30.476Z,1.50
2022-09-09T04:48:33.631Z,1.50
2022-09-09T04:49:37.276Z,1.40
2022-09-09T04:50:42.214Z,1.25
2022-09-09T04:51:47.961Z,1.50
2022-09-09T04:52:50.023Z,1.83
2022-09-09T04:53:55.127Z,1.60
2022-09-09T04:54:57.302Z,1.65
2022-09-09T04:56:05.350Z,1.77
2022-09-09T04:57:16.504Z,1.50
2022-09-09T04:58:23.625Z,1.65
2022-09-09T04:59:26.359Z,1.75
2022-09-09T05:00:32.728Z,1.40
2022-09-09T05:01:35.391Z,1.48
2022-09-09T05:02:40.950Z,2.00
2022-09-09T05:03:43.310Z,1.70
2022-09-09T05:04:50.586Z,1.52
2022-09-09T05:05:54.449Z,1.40
2022-09-09T05:06:58.358Z,1.50
2022-09-09T05:08:03.736Z,1.70
2022-09-09T05:09:07.210Z,1.50
2022-09-09T05:10:11.563Z,1.23
2022-09-09T05:11:18.605Z,1.20
2022-09-09T05:12:22.020Z,1.80
2022-09-09T05:13:27.649Z,1.60
2022-09-09T05:14:31.140Z,1.45
2022-09-09T05:15:36.546Z,1.50
2022-09-09T05:16:40.476Z,1.60
2022-09-09T05:17:44.909Z,1.50
2022-09-09T05:18:49.988Z,1.35
2022-09-09T05:19:52.682Z,1.35
2022-09-09T05:21:03.101Z,1.30
2022-09-09T05:22:06.042Z,1.40
2022-09-09T05:23:19.429Z,1.50
2022-09-09T05:24:24.007Z,1.60
2022-09-09T05:25:29.444Z,1.67
2022-09-09T05:26:33.480Z,1.90
2022-09-09T05:27:37.304Z,1.30
2022-09-09T05:28:39.849Z,1.60
2022-09-09T05:29:45.555Z,1.50
2022-09-09T05:30:56.924Z,1.52
2022-09-09T05:32:00.080Z,1.77
2022-09-09T05:33:02.166Z,1.65
2022-09-09T05:34:05.292Z,1.08
2022-09-09T05:35:07.942Z,1.50
2022-09-09T05:36:14.929Z,1.50
2022-09-09T05:37:17.650Z,1.20
2022-09-09T05:38:20.892Z,1.50
2022-09-09T05:39:23.151Z,1.25
2022-09-09T05:40:26.190Z,1.40
2022-09-09T05:41:30.043Z,1.48
2022-09-09T05:42:34.677Z,1.67
2022-09-09T05:43:36.881Z,1.23
2022-09-09T05:44:39.983Z,1.40
2022-09-09T05:45:42.710Z,1.20
2022-09-09T05:46:47.033Z,1.42
2022-09-09T05:47:53.989Z,1.30
2022-09-09T05:48:57.144Z,1.25
2022-09-09T05:50:06.584Z,1.33
2022-09-09T05:51:13.899Z,1.50
2022-09-09T05:52:17.057Z,1.73
2022-09-09T05:53:19.419Z,1.50
2022-09-09T05:54:22.781Z,1.42
2022-09-09T05:55:26.918Z,1.30
2022-09-09T05:56:30.994Z,1.25
2022-09-09T05:57:34.693Z,1.20
2022-09-09T05:58:39.518Z,1.40
2022-09-09T05:59:44.170Z,1.20
2022-09-09T06:00:47.141Z,1.13
2022-09-09T06:01:49.381Z,1.30
2022-09-09T06:02:58.671Z,1.48
2022-09-09T06:04:01.815Z,1.10
2022-09-09T06:05:05.913Z,1.20
2022-09-09T06:06:10.328Z,1.23
2022-09-09T06:07:15.661Z,1.55
2022-09-09T06:08:17.713Z,1.23
2022-09-09T06:09:21.184Z,1.23
2022-09-09T06:10:23.689Z,1.25
2022-09-09T06:11:28.899Z,1.40
2022-09-09T06:12:30.949Z,1.70
2022-09-09T06:13:34.425Z,1.30
2022-09-09T06:14:37.855Z,1.30
2022-09-09T06:15:40.002Z,1.35
2022-09-09T06:16:45.055Z,1.52
2022-09-09T06:17:56.355Z,1.70
2022-09-09T06:18:59.721Z,1.60
2022-09-09T06:20:03.850Z,1.50
2022-09-09T06:21:10.550Z,1.40
2022-09-09T06:22:15.126Z,1.73
2022-09-09T06:23:17.645Z,1.52
2022-09-09T06:24:21.107Z,1.65
2022-09-09T06:25:25.326Z,1.50
2022-09-09T06:26:28.784Z,1.65
2022-09-09T06:27:33.388Z,1.35
2022-09-09T06:28:36.230Z,1.23
2022-09-09T06:29:39.943Z,1.50
2022-09-09T06:30:43.153Z,1.35
2022-09-09T06:31:46.536Z,1.23
2022-09-09T06:32:52.106Z,1.70
2022-09-09T06:33:56.088Z,1.65
2022-09-09T06:35:02.227Z,1.40
2022-09-09T06:36:06.303Z,1.40
2022-09-09T06:37:09.567Z,1.48
2022-09-09T06:38:19.757Z,1.27
2022-09-09T06:39:23.244Z,1.20
2022-09-09T06:40:25.820Z,1.77
2022-09-09T06:41:30.660Z,1.75
2022-09-09T06:42:33.076Z,2.10
2022-09-09T06:43:58.090Z,1.63
2022-09-09T06:45:09.737Z,1.75
2022-09-09T06:46:22.735Z,1.85
2022-09-09T06:47:25.943Z,1.30
2022-09-09T06:48:30.739Z,1.13
2022-09-09T06:49:32.794Z,1.60
2022-09-09T06:50:36.935Z,1.10
2022-09-09T06:51:43.842Z,1.20
2022-09-09T06:52:48.770Z,1.30
2022-09-09T06:53:55.433Z,1.55
2022-09-09T06:54:59.689Z,1.52
2022-09-09T06:56:04.440Z,1.45
2022-09-09T06:57:27.100Z,1.60
2022-09-09T06:58:33.506Z,1.40
2022-09-09T06:59:37.858Z,1.48
2022-09-09T07:00:40.169Z,1.45
2022-09-09T07:01:45.883Z,1.65
2022-09-09T07:02:51.900Z,1.45
2022-09-09T07:03:56.889Z,1.80
2022-09-09T07:04:59.771Z,1.10
2022-09-09T07:06:05.234Z,1.02
2022-09-09T07:07:09.254Z,1.30
2022-09-09T07:08:12.426Z,1.38
2022-09-09T07:09:18.543Z,1.10
2022-09-09T07:10:23.594Z,1.00
2022-09-09T07:11:28.857Z,1.15
2022-09-09T07:12:31.829Z,1.20
2022-09-09T07:13:36.797Z,1.05
2022-09-09T07:14:40.379Z,1.48
2022-09-09T07:15:46.292Z,1.40
2022-09-09T07:16:49.538Z,1.15
2022-09-09T07:17:53.767Z,1.25
2022-09-09T07:18:58.722Z,1.27
2022-09-09T07:20:01.201Z,1.00
2022-09-09T07:21:05.067Z,1.20
2022-09-09T07:22:07.432Z,1.30
2022-09-09T07:23:12.439Z,1.00
2022-09-09T07:24:16.690Z,1.10
2022-09-09T07:25:21.850Z,1.10
2022-09-09T07:26:26.120Z,1.15
2022-09-09T07:27:31.233Z,1.08
2022-09-09T07:28:33.776Z,1.20
2022-09-09T07:29:37.156Z,1.00
2022-09-09T07:30:39.393Z,1.30
2022-09-09T07:31:43.624Z,1.70
2022-09-09T07:32:52.680Z,1.10
2022-09-09T07:33:55.573Z,1.38
2022-09-09T07:34:59.722Z,1.08
2022-09-09T07:36:05.948Z,1.17
2022-09-09T07:37:12.646Z,1.48
2022-09-09T07:38:17.249Z,1.20
2022-09-09T07:39:21.908Z,1.30
2022-09-09T07:40:29.250Z,1.00
2022-09-09T07:41:38.470Z,1.30
2022-09-09T07:42:42.023Z,1.20
2022-09-09T07:43:46.886Z,1.33
2022-09-09T07:44:50.483Z,1.38
2022-09-09T07:45:59.084Z,1.45
2022-09-09T07:47:03.767Z,1.48
2022-09-09T07:48:12.074Z,1.30
2022-09-09T07:49:16.264Z,1.20
2022-09-09T07:50:18.944Z,1.10
2022-09-09T07:51:24.608Z,1.25
2022-09-09T07:52:27.622Z,1.48
2022-09-09T07:53:35.900Z,1.20
2022-09-09T07:54:41.262Z,1.40
2022-09-09T07:55:44.636Z,1.10
2022-09-09T07:56:48.249Z,1.10
2022-09-09T07:57:50.354Z,1.17
2022-09-09T07:58:55.305Z,1.00
2022-09-09T07:59:57.610Z,1.02
2022-09-09T08:01:01.170Z,1.13
2022-09-09T08:02:03.735Z,1.30
2022-09-09T08:03:09.536Z,1.27
2022-09-09T08:04:16.139Z,1.10
2022-09-09T08:05:19.994Z,1.13
2022-09-09T08:06:25.990Z,1.10
2022-09-09T08:07:29.482Z,1.02
2022-09-09T08:08:31.741Z,1.35
2022-09-09T08:09:35.485Z,1.15
2022-09-09T08:10:44.991Z,1.33
2022-09-09T08:11:48.825Z,1.42
2022-09-09T08:13:14.740Z,1.10
2022-09-09T08:14:17.125Z,1.25
2022-09-09T08:15:19.414Z,1.52
2022-09-09T08:16:24.942Z,1.00
2022-09-09T08:17:27.133Z,1.40
2022-09-09T08:18:30.407Z,1.25
2022-09-09T08:19:35.267Z,1.50
2022-09-09T08:20:38.797Z,2.15
2022-09-09T08:29:29.473Z,1.17
2022-09-09T08:30:43.507Z,1.20
2022-09-09T08:32:05.910Z,1.85
2022-09-09T08:33:11.598Z,1.20
2022-09-09T08:42:22.778Z,1.35
2022-09-09T08:43:29.325Z,1.20
2022-09-09T08:44:48.839Z,1.30
2022-09-09T08:46:02.676Z,0.95
2022-09-09T08:47:14.886Z,1.00
2022-09-09T08:48:31.509Z,1.35
2022-09-09T08:49:50.908Z,1.20
2022-09-09T08:51:02.853Z,1.23
2022-09-09T08:52:14.776Z,1.10
2022-09-09T08:53:21.204Z,1.38
2022-09-09T08:54:48.395Z,1.10
2022-09-09T08:55:50.620Z,1.20
2022-09-09T08:56:57.394Z,1.50
2022-09-09T08:58:14.286Z,1.50
2022-09-09T08:59:21.125Z,1.25
2022-09-09T09:00:25.320Z,1.40
2022-09-09T09:01:45.206Z,1.33
2022-09-09T09:03:06.743Z,1.35
2022-09-09T09:04:21.129Z,1.30
2022-09-09T09:05:33.636Z,1.05
2022-09-09T09:06:47.439Z,1.30
2022-09-09T09:08:01.302Z,1.30
2022-09-09T09:09:11.501Z,1.08
2022-09-09T09:10:40.999Z,1.52
2022-09-09T09:11:50.361Z,1.38
2022-09-09T09:12:54.874Z,1.15
2022-09-09T09:14:03.813Z,1.30
2022-09-09T09:15:18.483Z,1.23
2022-09-09T09:16:27.634Z,1.60
2022-09-09T09:17:34.166Z,1.58
2022-09-09T09:18:38.425Z,1.88
2022-09-09T09:19:42.238Z,1.40
2022-09-09T09:20:54.549Z,1.20
2022-09-09T09:22:04.378Z,1.30
2022-09-09T09:23:07.737Z,1.35
2022-09-09T09:24:21.258Z,1.15
2022-09-09T09:25:29.454Z,1.20
2022-09-09T09:26:36.000Z,1.73
2022-09-09T09:27:46.127Z,1.55
2022-09-09T09:28:49.258Z,1.45
2022-09-09T09:30:22.427Z,1.10
2022-09-09T09:31:23.161Z,1.30
2022-09-09T09:32:29.323Z,1.30
2022-09-09T09:33:40.975Z,1.50
2022-09-09T09:34:43.724Z,1.45
2022-09-09T09:35:46.993Z,1.40
2022-09-09T09:36:55.938Z,1.10
2022-09-09T09:40:58.890Z,1.20
2022-09-09T09:42:15.006Z,0.90
2022-09-09T09:43:28.530Z,1.33
2022-09-09T09:44:32.954Z,0.98
2022-09-09T09:46:06.971Z,1.17
2022-09-09T09:47:16.270Z,0.98
2022-09-09T09:48:22.672Z,1.00
2022-09-09T09:49:26.397Z,1.38
2022-09-09T09:50:28.695Z,1.20
2022-09-09T09:51:34.342Z,1.40
2022-09-09T09:52:37.891Z,1.80
2022-09-09T09:53:45.108Z,1.30
2022-09-09T09:54:54.252Z,1.10
2022-09-09T09:56:06.292Z,1.15
2022-09-09T09:58:16.478Z,1.20
2022-09-09T10:00:21.730Z,1.10
2022-09-09T10:07:57.421Z,1.65
2022-09-09T10:24:35.627Z,1.10
2022-09-09T10:26:07.051Z,1.02
2022-09-09T10:27:17.752Z,1.35
2022-09-09T10:28:54.009Z,1.00
2022-09-09T10:30:18.628Z,1.40
2022-09-09T10:31:26.205Z,1.20
2022-09-09T10:32:40.770Z,1.10
2022-09-09T10:33:51.501Z,1.17
2022-09-09T10:34:59.086Z,1.30
2022-09-09T10:36:14.634Z,1.35
2022-09-09T10:37:32.480Z,1.02
2022-09-09T10:38:44.576Z,1.20
2022-09-09T10:39:46.924Z,1.60
2022-09-09T10:41:14.103Z,1.10
2022-09-09T10:42:19.183Z,1.13
2022-09-09T10:43:41.507Z,1.08
2022-09-09T10:45:05.804Z,1.20
2022-09-09T10:46:13.809Z,1.20
2022-09-09T10:47:44.118Z,1.08
2022-09-09T10:49:00.240Z,1.20
2022-09-09T10:50:50.339Z,2.05
2022-09-09T10:52:01.020Z,1.50
2022-09-09T10:53:16.283Z,1.10
2022-09-09T10:54:32.664Z,1.30
2022-09-09T10:55:40.046Z,1.05
2022-09-09T10:56:47.232Z,1.13
2022-09-09T10:57:52.233Z,1.02
2022-09-09T10:59:00.729Z,1.10
2022-09-09T11:00:07.048Z,1.20
2022-09-09T11:01:17.187Z,1.20
2022-09-09T11:02:27.875Z,1.00
2022-09-09T11:03:32.149Z,1.05
2022-09-09T11:04:40.494Z,1.10
2022-09-09T11:05:45.917Z,1.00
2022-09-09T11:06:53.490Z,1.20
2022-09-09T11:07:59.207Z,1.30
2022-09-09T11:09:04.232Z,1.17
2022-09-09T11:10:18.397Z,1.20
2022-09-09T11:11:27.302Z,1.00
2022-09-09T11:12:33.391Z,1.10
2022-09-09T11:13:41.295Z,1.05
2022-09-09T11:14:47.759Z,0.95
2022-09-09T11:15:53.436Z,1.23
2022-09-09T11:17:01.625Z,1.42
2022-09-09T11:18:08.826Z,1.02
2022-09-09T11:19:22.321Z,1.05
2022-09-09T11:20:26.440Z,0.98
2022-09-09T11:21:33.410Z,0.90
2022-09-09T11:22:39.776Z,0.90
2022-09-09T11:23:46.677Z,1.00
2022-09-09T11:24:52.902Z,0.80
2022-09-09T11:25:59.066Z,0.70
2022-09-09T11:27:10.327Z,0.80
2022-09-09T11:28:34.987Z,0.80
2022-09-09T11:29:59.654Z,0.80
2022-09-09T11:31:29.866Z,0.90
2022-09-09T11:32:51.157Z,0.80
2022-09-09T11:34:09.488Z,1.17
2022-09-09T11:35:35.442Z,0.90
2022-09-09T11:36:47.331Z,0.77
2022-09-09T11:38:26.995Z,0.93
2022-09-09T11:40:00.374Z,0.90
2022-09-09T11:41:07.649Z,0.82
2022-09-09T11:42:19.651Z,1.00
2022-09-09T11:43:27.778Z,0.90
2022-09-09T11:44:33.400Z,1.20
2022-09-09T11:45:37.278Z,1.00
2022-09-09T11:46:43.313Z,1.38
2022-09-09T11:47:53.426Z,0.90
2022-09-09T11:49:08.240Z,0.80
2022-09-09T11:50:27.958Z,0.90
2022-09-09T11:51:33.213Z,0.75
2022-09-09T11:52:39.023Z,1.02
2022-09-09T11:53:53.676Z,1.20
2022-09-09T11:54:57.362Z,1.10
2022-09-09T11:56:06.703Z,1.00
2022-09-09T11:57:25.266Z,0.90
2022-09-09T11:58:33.670Z,1.02
2022-09-09T11:59:38.231Z,1.00
2022-09-09T12:00:42.948Z,0.90
2022-09-09T12:01:47.919Z,0.90
2022-09-09T12:02:51.046Z,0.77
2022-09-09T12:04:03.832Z,0.93
2022-09-09T12:05:10.570Z,0.88
2022-09-09T12:06:20.953Z,0.70
2022-09-09T12:07:34.390Z,0.90
2022-09-09T12:08:37.983Z,0.68
2022-09-09T12:09:48.189Z,0.90
2022-09-09T12:10:56.750Z,0.77
2022-09-09T12:12:24.318Z,0.93
2022-09-09T12:13:29.919Z,1.10
2022-09-09T12:14:37.639Z,0.90
2022-09-09T12:15:50.599Z,1.00
2022-09-09T12:16:53.103Z,0.73
2022-09-09T12:18:02.632Z,0.70
2022-09-09T12:19:08.863Z,0.70
2022-09-09T12:20:14.804Z,0.82
2022-09-09T12:21:26.608Z,0.77
2022-09-09T12:22:36.783Z,0.98
2022-09-09T12:23:47.555Z,0.52
2022-09-09T12:24:55.693Z,0.80
2022-09-09T12:26:05.589Z,0.80
2022-09-09T12:27:17.928Z,1.10
2022-09-09T12:28:23.622Z,1.25
2022-09-09T12:29:38.423Z,0.88
2022-09-09T12:30:49.117Z,1.13
2022-09-09T12:31:58.544Z,0.90
2022-09-09T12:33:03.400Z,0.90
2022-09-09T12:34:13.886Z,0.90
2022-09-09T12:35:22.501Z,1.00
2022-09-09T12:36:30.777Z,1.10
2022-09-09T12:37:37.400Z,0.70
2022-09-09T12:38:41.930Z,1.25
2022-09-09T12:39:49.664Z,1.50
2022-09-09T12:40:56.321Z,1.05
2022-09-09T12:41:59.862Z,1.17
2022-09-09T12:43:03.525Z,2.03
2022-09-09T12:44:07.054Z,0.90
2022-09-09T12:45:20.618Z,1.00
2022-09-09T12:46:32.269Z,0.93
2022-09-09T12:47:44.207Z,0.70
2022-09-09T12:48:46.567Z,0.70
2022-09-09T12:49:51.050Z,1.10
2022-09-09T12:50:55.340Z,0.88
2022-09-09T12:51:59.558Z,1.00
2022-09-09T12:53:11.073Z,0.80
2022-09-09T12:54:15.412Z,1.10
2022-09-09T12:55:22.386Z,1.00
2022-09-09T12:56:27.722Z,1.00
2022-09-09T12:57:37.766Z,0.93
2022-09-09T12:58:40.937Z,0.82
2022-09-09T12:59:46.947Z,1.00
2022-09-09T13:00:57.241Z,0.75
2022-09-09T13:02:00.226Z,0.82
2022-09-09T13:03:05.135Z,0.80
2022-09-09T13:04:21.259Z,0.70
2022-09-09T13:05:27.330Z,0.93
2022-09-09T13:06:31.023Z,1.08
2022-09-09T13:07:34.128Z,1.00
2022-09-09T13:08:36.441Z,0.65
2022-09-09T13:09:39.778Z,0.82
2022-09-09T13:10:53.741Z,0.85
2022-09-09T13:11:59.226Z,0.75
2022-09-09T13:13:01.415Z,0.88
2022-09-09T13:14:05.326Z,0.95
2022-09-09T13:15:16.807Z,0.80
2022-09-09T13:16:28.399Z,0.80
2022-09-09T13:17:30.542Z,0.75
2022-09-09T13:18:36.522Z,0.98
2022-09-09T13:19:46.444Z,0.90
2022-09-09T13:20:50.914Z,0.93
2022-09-09T13:21:53.933Z,0.80
2022-09-09T13:22:58.840Z,0.80
2022-09-09T13:24:04.199Z,0.85
2022-09-09T13:25:21.860Z,0.80
2022-09-09T13:26:35.935Z,0.60
2022-09-09T13:27:44.086Z,0.82
2022-09-09T13:28:47.583Z,0.80
2022-09-09T13:29:58.650Z,0.80
2022-09-09T13:31:06.105Z,0.90
2022-09-09T13:32:18.410Z,0.80
2022-09-09T13:33:24.773Z,0.70
2022-09-09T13:34:29.051Z,0.90
2022-09-09T13:35:32.831Z,0.80
2022-09-09T13:36:36.052Z,0.75
2022-09-09T13:37:42.235Z,0.70
2022-09-09T13:38:56.156Z,0.90
2022-09-09T13:39:59.351Z,0.80
2022-09-09T13:41:05.451Z,0.93
2022-09-09T13:42:23.542Z,0.60
2022-09-09T13:43:27.636Z,0.80
2022-09-09T13:44:33.876Z,1.15
2022-09-09T13:45:37.572Z,0.85
2022-09-09T13:46:42.648Z,0.70
2022-09-09T13:47:47.210Z,0.75
2022-09-09T13:48:56.778Z,1.08
2022-09-09T13:50:00.197Z,0.60
2022-09-09T13:51:06.170Z,0.80
2022-09-09T13:52:14.574Z,1.00
2022-09-09T13:53:16.609Z,0.70
2022-09-09T13:54:22.226Z,0.60
2022-09-09T13:55:26.088Z,0.90
2022-09-09T13:56:30.076Z,0.90
2022-09-09T13:57:32.250Z,0.80
2022-09-09T13:58:36.053Z,0.90
2022-09-09T13:59:54.330Z,0.80
2022-09-09T14:01:01.330Z,0.70
2022-09-09T14:02:03.490Z,0.93
2022-09-09T14:03:08.480Z,0.68
2022-09-09T14:04:11.851Z,0.70
2022-09-09T14:05:14.458Z,0.90
2022-09-09T14:06:19.822Z,1.13
2022-09-09T14:07:22.149Z,0.80
2022-09-09T14:08:27.912Z,1.08
2022-09-09T14:09:30.007Z,1.00
2022-09-09T14:10:33.090Z,0.70
2022-09-09T14:11:35.384Z,0.90
2022-09-09T14:12:39.220Z,0.90
2022-09-09T14:13:45.039Z,0.98
2022-09-09T14:14:48.202Z,0.95
2022-09-09T14:15:51.135Z,0.90
2022-09-09T14:16:54.353Z,0.90
2022-09-09T14:17:56.432Z,0.90
2022-09-09T14:19:01.385Z,0.77
2022-09-09T14:20:04.897Z,1.10
2022-09-09T14:21:08.270Z,0.80
2022-09-09T14:22:10.369Z,0.80
2022-09-09T14:23:15.198Z,1.00
2022-09-09T14:24:18.511Z,0.80
2022-09-09T14:25:20.602Z,0.93
2022-09-09T14:26:24.562Z,0.80
2022-09-09T14:27:27.564Z,0.80
2022-09-09T14:28:54.712Z,0.73
2022-09-09T14:29:53.811Z,0.90
2022-09-09T14:30:55.960Z,0.90
2022-09-09T14:31:59.546Z,0.70
2022-09-09T14:33:02.051Z,0.80
2022-09-09T14:34:07.092Z,0.70
2022-09-09T14:35:09.825Z,0.88
2022-09-09T14:36:16.119Z,0.77
2022-09-09T14:37:18.497Z,0.80
2022-09-09T14:38:21.574Z,1.00
2022-09-09T14:39:24.730Z,1.23
2022-09-09T14:40:26.758Z,1.20
2022-09-09T14:41:30.490Z,0.75
2022-09-09T14:42:32.502Z,1.10
2022-09-09T14:43:35.554Z,1.00
2022-09-09T14:44:39.188Z,0.95
2022-09-09T14:45:42.313Z,0.80
2022-09-09T14:46:44.389Z,1.00
2022-09-09T14:47:47.453Z,1.55
2022-09-09T14:48:49.914Z,1.10
2022-09-09T14:49:54.540Z,1.20
2022-09-09T14:50:56.698Z,1.00
2022-09-09T14:51:59.754Z,1.25
2022-09-09T14:53:01.851Z,1.00
2022-09-09T14:54:05.326Z,1.00
2022-09-09T14:55:09.620Z,0.98
2022-09-09T14:56:13.752Z,1.00
2022-09-09T14:57:16.904Z,0.80
2022-09-09T14:58:21.187Z,0.90
2022-09-09T14:59:24.266Z,1.00
2022-09-09T15:01:30.749Z,0.98
2022-09-09T15:02:33.344Z,0.90
2022-09-09T15:03:36.531Z,1.48
2022-09-09T15:04:38.665Z,2.13
2022-09-09T15:05:43.434Z,1.88
2022-09-09T15:06:49.047Z,1.50
2022-09-09T15:07:52.422Z,1.00
2022-09-09T15:08:55.052Z,1.10
2022-09-09T15:09:58.072Z,1.15
2022-09-09T15:11:01.667Z,1.02
2022-09-09T15:12:05.247Z,1.30
2022-09-09T15:13:07.312Z,0.98
2022-09-09T15:14:11.288Z,1.23
2022-09-09T15:15:13.693Z,1.00
2022-09-09T15:16:20.426Z,1.00
2022-09-09T15:17:22.650Z,1.17
2022-09-09T15:18:26.373Z,0.95
2022-09-09T15:19:28.471Z,1.10
2022-09-09T15:20:31.577Z,0.90
2022-09-09T15:21:37.124Z,1.00
2022-09-09T15:22:41.054Z,0.88
2022-09-09T15:23:44.043Z,0.85
2022-09-09T15:24:47.172Z,0.82
2022-09-09T15:25:53.326Z,1.05
2022-09-09T15:26:57.574Z,1.00
2022-09-09T15:27:59.630Z,0.88
2022-09-09T15:29:02.967Z,1.10
2022-09-09T15:30:07.074Z,1.13
2022-09-09T15:31:12.905Z,1.30
2022-09-09T15:32:16.007Z,1.17
2022-09-09T15:33:18.145Z,1.20
2022-09-09T15:34:21.335Z,0.85
2022-09-09T15:35:23.381Z,0.80
2022-09-09T15:36:28.236Z,0.90
2022-09-09T15:37:32.947Z,1.08
2022-09-09T15:38:34.969Z,0.82